sensor_id;sensor_type;location;lat;lon;timestamp;temperature;humidity
42743;DHT22;28397;44.552;-0.848;2023-05-07T00:02:06;17.10;99.90
42743;DHT22;28397;44.552;-0.848;2023-05-07T00:04:32;17.10;99.90
42743;DHT22;28397;44.552;-0.848;2023-05-07T00:07:02;17.10;99.90
42743;DHT22;28397;44.552;-0.848;2023-05-07T00:09:28;16.90;99.90
42743;DHT22;28397;44.552;-0.848;2023-05-07T00:11:54;16.90;99.90
42743;DHT22;28397;44.552;-0.848;2023-05-07T00:14:20;16.90;99.90
42743;DHT22;28397;44.552;-0.848;2023-05-07T00:16:46;17.00;99.90
42743;DHT22;28397;44.552;-0.848;2023-05-07T00:19:12;17.00;99.90
42743;DHT22;28397;44.552;-0.848;2023-05-07T00:21:37;16.90;99.90
42743;DHT22;28397;44.552;-0.848;2023-05-07T00:24:05;17.00;99.90
42743;DHT22;28397;44.552;-0.848;2023-05-07T00:26:30;17.00;99.90
42743;DHT22;28397;44.552;-0.848;2023-05-07T00:28:56;16.90;99.90
42743;DHT22;28397;44.552;-0.848;2023-05-07T00:31:21;17.00;99.90
42743;DHT22;28397;44.552;-0.848;2023-05-07T00:33:47;17.00;99.90
42743;DHT22;28397;44.552;-0.848;2023-05-07T00:36:13;17.00;99.90
42743;DHT22;28397;44.552;-0.848;2023-05-07T00:38:38;17.00;99.90
42743;DHT22;28397;44.552;-0.848;2023-05-07T00:41:04;17.00;99.90
42743;DHT22;28397;44.552;-0.848;2023-05-07T00:43:30;17.00;99.90
42743;DHT22;28397;44.552;-0.848;2023-05-07T00:45:57;17.00;99.90
42743;DHT22;28397;44.552;-0.848;2023-05-07T00:48:23;17.00;99.90
42743;DHT22;28397;44.552;-0.848;2023-05-07T00:50:50;16.90;99.90
42743;DHT22;28397;44.552;-0.848;2023-05-07T00:53:16;16.90;99.90
42743;DHT22;28397;44.552;-0.848;2023-05-07T00:55:41;16.90;99.90
42743;DHT22;28397;44.552;-0.848;2023-05-07T00:58:08;16.90;99.90
42743;DHT22;28397;44.552;-0.848;2023-05-07T01:00:34;16.90;99.90
42743;DHT22;28397;44.552;-0.848;2023-05-07T01:03:01;16.90;99.90
42743;DHT22;28397;44.552;-0.848;2023-05-07T01:05:27;16.90;99.90
42743;DHT22;28397;44.552;-0.848;2023-05-07T01:07:54;16.80;99.90
42743;DHT22;28397;44.552;-0.848;2023-05-07T01:10:20;16.80;99.90
42743;DHT22;28397;44.552;-0.848;2023-05-07T01:12:46;16.90;99.90
42743;DHT22;28397;44.552;-0.848;2023-05-07T01:15:13;16.90;99.90
42743;DHT22;28397;44.552;-0.848;2023-05-07T01:17:40;16.90;99.90
42743;DHT22;28397;44.552;-0.848;2023-05-07T01:20:07;16.80;99.90
42743;DHT22;28397;44.552;-0.848;2023-05-07T01:22:37;16.80;99.90
42743;DHT22;28397;44.552;-0.848;2023-05-07T01:25:04;16.80;99.90
42743;DHT22;28397;44.552;-0.848;2023-05-07T01:27:31;16.80;99.90
42743;DHT22;28397;44.552;-0.848;2023-05-07T01:29:58;16.80;99.90
42743;DHT22;28397;44.552;-0.848;2023-05-07T01:32:48;16.80;99.90
42743;DHT22;28397;44.552;-0.848;2023-05-07T01:35:19;16.80;99.90
42743;DHT22;28397;44.552;-0.848;2023-05-07T01:37:46;16.70;99.90
42743;DHT22;28397;44.552;-0.848;2023-05-07T01:40:13;16.80;99.90
42743;DHT22;28397;44.552;-0.848;2023-05-07T01:42:39;16.80;99.90
42743;DHT22;28397;44.552;-0.848;2023-05-07T01:45:05;16.80;99.90
42743;DHT22;28397;44.552;-0.848;2023-05-07T01:47:32;16.80;99.90
42743;DHT22;28397;44.552;-0.848;2023-05-07T01:49:58;16.90;99.90
42743;DHT22;28397;44.552;-0.848;2023-05-07T01:52:24;16.90;99.90
42743;DHT22;28397;44.552;-0.848;2023-05-07T01:54:50;16.80;99.90
42743;DHT22;28397;44.552;-0.848;2023-05-07T01:57:16;16.80;99.90
42743;DHT22;28397;44.552;-0.848;2023-05-07T01:59:42;16.80;99.90
42743;DHT22;28397;44.552;-0.848;2023-05-07T02:02:07;16.80;99.90
42743;DHT22;28397;44.552;-0.848;2023-05-07T02:04:33;16.80;99.90
42743;DHT22;28397;44.552;-0.848;2023-05-07T02:06:59;16.70;99.90
42743;DHT22;28397;44.552;-0.848;2023-05-07T02:09:24;16.70;99.90
42743;DHT22;28397;44.552;-0.848;2023-05-07T02:11:50;16.80;99.90
42743;DHT22;28397;44.552;-0.848;2023-05-07T02:14:16;16.80;99.90
42743;DHT22;28397;44.552;-0.848;2023-05-07T02:16:41;16.80;99.90
42743;DHT22;28397;44.552;-0.848;2023-05-07T02:19:07;16.80;99.90
42743;DHT22;28397;44.552;-0.848;2023-05-07T02:21:33;16.80;99.90
42743;DHT22;28397;44.552;-0.848;2023-05-07T02:23:58;16.80;99.90
42743;DHT22;28397;44.552;-0.848;2023-05-07T02:26:24;16.80;99.90
42743;DHT22;28397;44.552;-0.848;2023-05-07T02:28:51;16.80;99.90
42743;DHT22;28397;44.552;-0.848;2023-05-07T02:31:17;16.80;99.90
42743;DHT22;28397;44.552;-0.848;2023-05-07T02:33:43;16.80;99.90
42743;DHT22;28397;44.552;-0.848;2023-05-07T02:36:09;16.80;99.90
42743;DHT22;28397;44.552;-0.848;2023-05-07T02:38:35;16.80;99.90
42743;DHT22;28397;44.552;-0.848;2023-05-07T02:41:01;16.80;99.90
42743;DHT22;28397;44.552;-0.848;2023-05-07T02:43:27;16.80;99.90
42743;DHT22;28397;44.552;-0.848;2023-05-07T02:46:07;16.80;99.90
42743;DHT22;28397;44.552;-0.848;2023-05-07T02:48:33;16.80;99.90
42743;DHT22;28397;44.552;-0.848;2023-05-07T02:50:59;16.80;99.90
42743;DHT22;28397;44.552;-0.848;2023-05-07T02:53:26;16.80;99.90
42743;DHT22;28397;44.552;-0.848;2023-05-07T02:55:56;16.80;99.90
42743;DHT22;28397;44.552;-0.848;2023-05-07T02:58:22;16.80;99.90
42743;DHT22;28397;44.552;-0.848;2023-05-07T03:00:48;16.70;99.90
42743;DHT22;28397;44.552;-0.848;2023-05-07T03:03:14;16.80;99.90
42743;DHT22;28397;44.552;-0.848;2023-05-07T03:05:40;16.70;99.90
42743;DHT22;28397;44.552;-0.848;2023-05-07T03:08:06;16.70;99.90
42743;DHT22;28397;44.552;-0.848;2023-05-07T03:10:31;16.70;99.90
42743;DHT22;28397;44.552;-0.848;2023-05-07T03:12:57;16.70;99.90
42743;DHT22;28397;44.552;-0.848;2023-05-07T03:15:23;16.70;99.90
42743;DHT22;28397;44.552;-0.848;2023-05-07T03:17:48;16.70;99.90
42743;DHT22;28397;44.552;-0.848;2023-05-07T03:20:14;16.70;99.90
42743;DHT22;28397;44.552;-0.848;2023-05-07T03:22:40;16.70;99.90
42743;DHT22;28397;44.552;-0.848;2023-05-07T03:25:07;16.70;99.90
42743;DHT22;28397;44.552;-0.848;2023-05-07T03:27:33;16.70;99.90
42743;DHT22;28397;44.552;-0.848;2023-05-07T03:30:00;16.70;99.90
42743;DHT22;28397;44.552;-0.848;2023-05-07T03:32:25;16.70;99.90
42743;DHT22;28397;44.552;-0.848;2023-05-07T03:34:51;16.70;99.90
42743;DHT22;28397;44.552;-0.848;2023-05-07T03:37:17;16.50;99.90
42743;DHT22;28397;44.552;-0.848;2023-05-07T03:39:42;16.60;99.90
42743;DHT22;28397;44.552;-0.848;2023-05-07T03:42:08;16.60;99.90
42743;DHT22;28397;44.552;-0.848;2023-05-07T03:44:34;16.60;99.90
42743;DHT22;28397;44.552;-0.848;2023-05-07T03:47:02;16.60;99.90
42743;DHT22;28397;44.552;-0.848;2023-05-07T03:49:27;16.60;99.90
42743;DHT22;28397;44.552;-0.848;2023-05-07T03:51:53;16.60;99.90
42743;DHT22;28397;44.552;-0.848;2023-05-07T03:54:19;16.50;99.90
42743;DHT22;28397;44.552;-0.848;2023-05-07T03:56:44;16.50;99.90
42743;DHT22;28397;44.552;-0.848;2023-05-07T03:59:10;16.50;99.90
42743;DHT22;28397;44.552;-0.848;2023-05-07T04:01:36;16.60;99.90
42743;DHT22;28397;44.552;-0.848;2023-05-07T04:04:01;16.60;99.90
42743;DHT22;28397;44.552;-0.848;2023-05-07T04:06:28;16.60;99.90
42743;DHT22;28397;44.552;-0.848;2023-05-07T04:08:54;16.60;99.90
42743;DHT22;28397;44.552;-0.848;2023-05-07T04:11:19;16.60;99.90
42743;DHT22;28397;44.552;-0.848;2023-05-07T04:13:45;16.60;99.90
42743;DHT22;28397;44.552;-0.848;2023-05-07T04:16:11;16.50;99.90
42743;DHT22;28397;44.552;-0.848;2023-05-07T04:18:37;16.50;99.90
42743;DHT22;28397;44.552;-0.848;2023-05-07T04:21:03;16.50;99.90
42743;DHT22;28397;44.552;-0.848;2023-05-07T04:23:28;16.50;99.90
42743;DHT22;28397;44.552;-0.848;2023-05-07T04:25:54;16.50;99.90
42743;DHT22;28397;44.552;-0.848;2023-05-07T04:28:20;16.60;99.90
42743;DHT22;28397;44.552;-0.848;2023-05-07T04:30:46;16.50;99.90
42743;DHT22;28397;44.552;-0.848;2023-05-07T04:33:11;16.60;99.90
42743;DHT22;28397;44.552;-0.848;2023-05-07T04:35:39;16.50;99.90
42743;DHT22;28397;44.552;-0.848;2023-05-07T04:38:04;16.50;99.90
42743;DHT22;28397;44.552;-0.848;2023-05-07T04:40:30;16.50;99.90
42743;DHT22;28397;44.552;-0.848;2023-05-07T04:42:56;16.50;99.90
42743;DHT22;28397;44.552;-0.848;2023-05-07T04:45:22;16.50;99.90
42743;DHT22;28397;44.552;-0.848;2023-05-07T04:47:47;16.50;99.90
42743;DHT22;28397;44.552;-0.848;2023-05-07T04:50:13;16.50;99.90
42743;DHT22;28397;44.552;-0.848;2023-05-07T04:52:39;16.50;99.90
42743;DHT22;28397;44.552;-0.848;2023-05-07T04:55:05;16.50;99.90
42743;DHT22;28397;44.552;-0.848;2023-05-07T04:57:30;16.40;99.90
42743;DHT22;28397;44.552;-0.848;2023-05-07T04:59:56;16.50;99.90
42743;DHT22;28397;44.552;-0.848;2023-05-07T05:02:22;16.50;99.90
42743;DHT22;28397;44.552;-0.848;2023-05-07T05:04:48;16.50;99.90
42743;DHT22;28397;44.552;-0.848;2023-05-07T05:07:13;16.50;99.90
42743;DHT22;28397;44.552;-0.848;2023-05-07T05:09:39;16.50;99.90
42743;DHT22;28397;44.552;-0.848;2023-05-07T05:12:05;16.50;99.90
42743;DHT22;28397;44.552;-0.848;2023-05-07T05:14:32;16.50;99.90
42743;DHT22;28397;44.552;-0.848;2023-05-07T05:16:58;16.50;99.90
42743;DHT22;28397;44.552;-0.848;2023-05-07T05:19:24;16.50;99.90
42743;DHT22;28397;44.552;-0.848;2023-05-07T05:21:49;16.50;99.90
42743;DHT22;28397;44.552;-0.848;2023-05-07T05:24:15;16.50;99.90
42743;DHT22;28397;44.552;-0.848;2023-05-07T05:26:40;16.50;99.90
42743;DHT22;28397;44.552;-0.848;2023-05-07T05:29:06;16.50;99.90
42743;DHT22;28397;44.552;-0.848;2023-05-07T05:31:33;16.50;99.90
42743;DHT22;28397;44.552;-0.848;2023-05-07T05:33:59;16.50;99.90
42743;DHT22;28397;44.552;-0.848;2023-05-07T05:36:24;16.50;99.90
42743;DHT22;28397;44.552;-0.848;2023-05-07T05:38:51;16.60;99.90
42743;DHT22;28397;44.552;-0.848;2023-05-07T05:41:16;16.60;99.90
42743;DHT22;28397;44.552;-0.848;2023-05-07T05:43:42;16.60;99.90
42743;DHT22;28397;44.552;-0.848;2023-05-07T05:46:08;16.60;99.90
42743;DHT22;28397;44.552;-0.848;2023-05-07T05:48:36;16.60;99.90
42743;DHT22;28397;44.552;-0.848;2023-05-07T05:51:02;16.50;99.90
42743;DHT22;28397;44.552;-0.848;2023-05-07T05:53:27;16.60;99.90
42743;DHT22;28397;44.552;-0.848;2023-05-07T05:55:53;16.60;99.90
42743;DHT22;28397;44.552;-0.848;2023-05-07T05:58:19;16.60;99.90
42743;DHT22;28397;44.552;-0.848;2023-05-07T06:00:46;16.60;99.90
42743;DHT22;28397;44.552;-0.848;2023-05-07T06:03:13;16.60;99.90
42743;DHT22;28397;44.552;-0.848;2023-05-07T06:05:39;16.60;99.90
42743;DHT22;28397;44.552;-0.848;2023-05-07T06:08:05;16.60;99.90
42743;DHT22;28397;44.552;-0.848;2023-05-07T06:10:30;16.70;99.90
42743;DHT22;28397;44.552;-0.848;2023-05-07T06:12:56;16.70;99.90
42743;DHT22;28397;44.552;-0.848;2023-05-07T06:15:22;16.70;99.90
42743;DHT22;28397;44.552;-0.848;2023-05-07T06:17:48;16.80;99.90
42743;DHT22;28397;44.552;-0.848;2023-05-07T06:20:14;16.80;99.90
42743;DHT22;28397;44.552;-0.848;2023-05-07T06:22:40;16.80;99.90
42743;DHT22;28397;44.552;-0.848;2023-05-07T06:25:06;16.80;99.90
42743;DHT22;28397;44.552;-0.848;2023-05-07T06:27:32;16.90;99.90
42743;DHT22;28397;44.552;-0.848;2023-05-07T06:29:57;16.90;99.90
42743;DHT22;28397;44.552;-0.848;2023-05-07T06:32:23;16.90;99.90
42743;DHT22;28397;44.552;-0.848;2023-05-07T06:34:49;16.90;99.90
42743;DHT22;28397;44.552;-0.848;2023-05-07T06:37:14;17.00;99.90
42743;DHT22;28397;44.552;-0.848;2023-05-07T06:39:40;17.10;99.90
42743;DHT22;28397;44.552;-0.848;2023-05-07T06:42:06;17.20;99.90
42743;DHT22;28397;44.552;-0.848;2023-05-07T06:44:32;17.20;99.90
42743;DHT22;28397;44.552;-0.848;2023-05-07T06:46:57;17.30;99.90
42743;DHT22;28397;44.552;-0.848;2023-05-07T06:49:23;17.30;99.90
42743;DHT22;28397;44.552;-0.848;2023-05-07T06:51:49;17.40;99.90
42743;DHT22;28397;44.552;-0.848;2023-05-07T06:54:15;17.40;99.90
42743;DHT22;28397;44.552;-0.848;2023-05-07T06:56:40;17.50;99.90
42743;DHT22;28397;44.552;-0.848;2023-05-07T06:59:06;17.50;99.90
42743;DHT22;28397;44.552;-0.848;2023-05-07T07:01:32;17.50;99.90
42743;DHT22;28397;44.552;-0.848;2023-05-07T07:03:58;17.50;99.90
42743;DHT22;28397;44.552;-0.848;2023-05-07T07:06:23;17.60;99.90
42743;DHT22;28397;44.552;-0.848;2023-05-07T07:08:49;17.70;99.90
42743;DHT22;28397;44.552;-0.848;2023-05-07T07:11:15;17.60;99.90
42743;DHT22;28397;44.552;-0.848;2023-05-07T07:13:41;17.70;99.90
42743;DHT22;28397;44.552;-0.848;2023-05-07T07:16:08;17.70;99.90
42743;DHT22;28397;44.552;-0.848;2023-05-07T07:18:33;17.80;99.90
42743;DHT22;28397;44.552;-0.848;2023-05-07T07:20:59;17.70;99.90
42743;DHT22;28397;44.552;-0.848;2023-05-07T07:23:25;17.70;99.90
42743;DHT22;28397;44.552;-0.848;2023-05-07T07:25:51;17.70;99.90
42743;DHT22;28397;44.552;-0.848;2023-05-07T07:28:17;17.60;99.90
42743;DHT22;28397;44.552;-0.848;2023-05-07T07:30:43;17.70;99.90
42743;DHT22;28397;44.552;-0.848;2023-05-07T07:33:08;17.80;99.90
42743;DHT22;28397;44.552;-0.848;2023-05-07T07:35:34;17.80;99.90
42743;DHT22;28397;44.552;-0.848;2023-05-07T07:38:00;17.80;99.90
42743;DHT22;28397;44.552;-0.848;2023-05-07T07:40:27;17.80;99.90
42743;DHT22;28397;44.552;-0.848;2023-05-07T07:42:53;17.80;99.90
42743;DHT22;28397;44.552;-0.848;2023-05-07T07:45:19;17.80;99.90
42743;DHT22;28397;44.552;-0.848;2023-05-07T07:47:45;17.80;99.90
42743;DHT22;28397;44.552;-0.848;2023-05-07T07:50:10;17.90;99.90
42743;DHT22;28397;44.552;-0.848;2023-05-07T07:52:36;17.90;99.90
42743;DHT22;28397;44.552;-0.848;2023-05-07T07:55:02;17.90;99.90
42743;DHT22;28397;44.552;-0.848;2023-05-07T07:57:28;17.90;99.90
42743;DHT22;28397;44.552;-0.848;2023-05-07T07:59:54;17.80;99.90
42743;DHT22;28397;44.552;-0.848;2023-05-07T08:02:20;17.80;99.90
42743;DHT22;28397;44.552;-0.848;2023-05-07T08:04:46;17.80;99.90
42743;DHT22;28397;44.552;-0.848;2023-05-07T08:07:11;17.90;99.90
42743;DHT22;28397;44.552;-0.848;2023-05-07T08:09:38;18.00;99.90
42743;DHT22;28397;44.552;-0.848;2023-05-07T08:12:07;18.00;99.90
42743;DHT22;28397;44.552;-0.848;2023-05-07T08:14:33;17.90;99.90
42743;DHT22;28397;44.552;-0.848;2023-05-07T08:17:00;17.90;99.90
42743;DHT22;28397;44.552;-0.848;2023-05-07T08:19:26;17.80;99.90
42743;DHT22;28397;44.552;-0.848;2023-05-07T08:21:51;17.90;99.90
42743;DHT22;28397;44.552;-0.848;2023-05-07T08:24:17;17.90;99.90
42743;DHT22;28397;44.552;-0.848;2023-05-07T08:26:44;18.00;99.90
42743;DHT22;28397;44.552;-0.848;2023-05-07T08:29:10;18.10;99.90
42743;DHT22;28397;44.552;-0.848;2023-05-07T08:31:36;18.10;99.90
42743;DHT22;28397;44.552;-0.848;2023-05-07T08:34:03;18.20;99.90
42743;DHT22;28397;44.552;-0.848;2023-05-07T08:36:29;18.20;99.90
42743;DHT22;28397;44.552;-0.848;2023-05-07T08:38:54;18.20;99.90
42743;DHT22;28397;44.552;-0.848;2023-05-07T08:41:20;18.20;99.90
42743;DHT22;28397;44.552;-0.848;2023-05-07T08:43:48;18.30;99.90
42743;DHT22;28397;44.552;-0.848;2023-05-07T08:46:21;18.40;99.90
42743;DHT22;28397;44.552;-0.848;2023-05-07T08:48:51;18.40;99.90
42743;DHT22;28397;44.552;-0.848;2023-05-07T08:51:20;18.30;99.90
42743;DHT22;28397;44.552;-0.848;2023-05-07T08:53:48;18.40;99.90
42743;DHT22;28397;44.552;-0.848;2023-05-07T08:56:14;18.50;99.90
42743;DHT22;28397;44.552;-0.848;2023-05-07T08:58:45;18.50;99.90
42743;DHT22;28397;44.552;-0.848;2023-05-07T09:01:15;18.60;99.90
42743;DHT22;28397;44.552;-0.848;2023-05-07T09:03:44;18.60;99.90
42743;DHT22;28397;44.552;-0.848;2023-05-07T09:06:11;18.50;99.90
42743;DHT22;28397;44.552;-0.848;2023-05-07T09:08:37;18.40;99.90
42743;DHT22;28397;44.552;-0.848;2023-05-07T09:11:03;18.50;99.90
42743;DHT22;28397;44.552;-0.848;2023-05-07T09:13:29;18.50;99.90
42743;DHT22;28397;44.552;-0.848;2023-05-07T09:15:55;18.60;99.90
42743;DHT22;28397;44.552;-0.848;2023-05-07T09:18:23;18.60;99.90
42743;DHT22;28397;44.552;-0.848;2023-05-07T09:20:49;18.60;99.90
42743;DHT22;28397;44.552;-0.848;2023-05-07T09:23:14;18.60;99.90
42743;DHT22;28397;44.552;-0.848;2023-05-07T09:25:40;18.60;99.90
42743;DHT22;28397;44.552;-0.848;2023-05-07T09:28:06;18.70;99.90
42743;DHT22;28397;44.552;-0.848;2023-05-07T09:30:33;18.80;99.90
42743;DHT22;28397;44.552;-0.848;2023-05-07T09:33:00;18.80;99.90
42743;DHT22;28397;44.552;-0.848;2023-05-07T09:35:27;18.90;99.90
42743;DHT22;28397;44.552;-0.848;2023-05-07T09:37:53;19.00;99.90
42743;DHT22;28397;44.552;-0.848;2023-05-07T09:40:25;18.90;99.90
42743;DHT22;28397;44.552;-0.848;2023-05-07T09:42:51;19.00;99.90
42743;DHT22;28397;44.552;-0.848;2023-05-07T09:45:29;19.00;99.90
42743;DHT22;28397;44.552;-0.848;2023-05-07T09:47:57;19.00;99.90
42743;DHT22;28397;44.552;-0.848;2023-05-07T09:50:36;19.10;99.90
42743;DHT22;28397;44.552;-0.848;2023-05-07T09:53:03;19.00;99.90
42743;DHT22;28397;44.552;-0.848;2023-05-07T09:55:29;19.00;99.90
42743;DHT22;28397;44.552;-0.848;2023-05-07T09:57:55;19.00;99.90
42743;DHT22;28397;44.552;-0.848;2023-05-07T10:00:22;19.10;99.90
42743;DHT22;28397;44.552;-0.848;2023-05-07T10:02:49;19.20;99.90
42743;DHT22;28397;44.552;-0.848;2023-05-07T10:05:18;19.30;99.90
42743;DHT22;28397;44.552;-0.848;2023-05-07T10:07:45;19.30;99.90
42743;DHT22;28397;44.552;-0.848;2023-05-07T10:10:11;19.20;99.90
42743;DHT22;28397;44.552;-0.848;2023-05-07T10:12:38;19.20;99.90
42743;DHT22;28397;44.552;-0.848;2023-05-07T10:15:09;19.10;99.90
42743;DHT22;28397;44.552;-0.848;2023-05-07T10:17:39;19.00;99.90
42743;DHT22;28397;44.552;-0.848;2023-05-07T10:20:06;19.00;99.90
42743;DHT22;28397;44.552;-0.848;2023-05-07T10:22:45;18.90;99.90
42743;DHT22;28397;44.552;-0.848;2023-05-07T10:25:22;18.90;99.90
42743;DHT22;28397;44.552;-0.848;2023-05-07T10:27:49;19.10;99.90
42743;DHT22;28397;44.552;-0.848;2023-05-07T10:30:26;19.30;99.90
42743;DHT22;28397;44.552;-0.848;2023-05-07T10:32:55;19.20;99.90
42743;DHT22;28397;44.552;-0.848;2023-05-07T10:35:24;19.20;99.90
42743;DHT22;28397;44.552;-0.848;2023-05-07T10:37:51;19.20;99.90
42743;DHT22;28397;44.552;-0.848;2023-05-07T10:40:18;19.20;99.90
42743;DHT22;28397;44.552;-0.848;2023-05-07T10:43:02;19.30;99.90
42743;DHT22;28397;44.552;-0.848;2023-05-07T10:45:29;19.40;99.90
42743;DHT22;28397;44.552;-0.848;2023-05-07T10:48:09;19.20;99.90
42743;DHT22;28397;44.552;-0.848;2023-05-07T10:50:36;19.30;99.90
42743;DHT22;28397;44.552;-0.848;2023-05-07T10:58:44;19.50;99.90
42743;DHT22;28397;44.552;-0.848;2023-05-07T11:01:10;19.60;99.90
42743;DHT22;28397;44.552;-0.848;2023-05-07T11:04:15;19.60;99.90
42743;DHT22;28397;44.552;-0.848;2023-05-07T11:15:07;19.50;99.90
42743;DHT22;28397;44.552;-0.848;2023-05-07T11:17:34;19.50;99.90
42743;DHT22;28397;44.552;-0.848;2023-05-07T11:20:01;19.70;99.90
42743;DHT22;28397;44.552;-0.848;2023-05-07T11:24:56;19.80;99.90
42743;DHT22;28397;44.552;-0.848;2023-05-07T11:27:23;20.00;99.90
42743;DHT22;28397;44.552;-0.848;2023-05-07T11:29:50;19.90;99.90
42743;DHT22;28397;44.552;-0.848;2023-05-07T11:32:26;19.90;99.90
42743;DHT22;28397;44.552;-0.848;2023-05-07T11:34:52;19.80;99.90
42743;DHT22;28397;44.552;-0.848;2023-05-07T11:37:19;19.80;99.90
42743;DHT22;28397;44.552;-0.848;2023-05-07T11:39:45;19.80;99.90
42743;DHT22;28397;44.552;-0.848;2023-05-07T11:42:31;19.80;99.90
42743;DHT22;28397;44.552;-0.848;2023-05-07T11:44:57;19.70;99.90
42743;DHT22;28397;44.552;-0.848;2023-05-07T11:47:24;19.70;99.90
42743;DHT22;28397;44.552;-0.848;2023-05-07T11:49:51;19.80;99.90
42743;DHT22;28397;44.552;-0.848;2023-05-07T11:52:19;20.00;99.90
42743;DHT22;28397;44.552;-0.848;2023-05-07T11:54:56;20.00;99.90
42743;DHT22;28397;44.552;-0.848;2023-05-07T11:57:23;20.00;99.90
42743;DHT22;28397;44.552;-0.848;2023-05-07T11:59:53;20.10;99.90
42743;DHT22;28397;44.552;-0.848;2023-05-07T12:02:19;20.10;99.90
42743;DHT22;28397;44.552;-0.848;2023-05-07T12:04:44;20.00;99.90
42743;DHT22;28397;44.552;-0.848;2023-05-07T12:07:14;20.10;99.90
42743;DHT22;28397;44.552;-0.848;2023-05-07T12:09:44;20.10;99.90
42743;DHT22;28397;44.552;-0.848;2023-05-07T12:12:10;20.10;99.90
42743;DHT22;28397;44.552;-0.848;2023-05-07T12:14:40;20.00;99.90
42743;DHT22;28397;44.552;-0.848;2023-05-07T12:17:09;19.90;99.90
42743;DHT22;28397;44.552;-0.848;2023-05-07T12:19:36;20.00;99.90
42743;DHT22;28397;44.552;-0.848;2023-05-07T12:22:03;19.80;99.90
42743;DHT22;28397;44.552;-0.848;2023-05-07T12:24:30;19.80;99.90
42743;DHT22;28397;44.552;-0.848;2023-05-07T12:27:06;19.90;99.90
42743;DHT22;28397;44.552;-0.848;2023-05-07T12:29:32;20.30;99.90
42743;DHT22;28397;44.552;-0.848;2023-05-07T12:31:58;20.30;99.90
42743;DHT22;28397;44.552;-0.848;2023-05-07T12:34:24;20.20;99.90
42743;DHT22;28397;44.552;-0.848;2023-05-07T12:36:49;20.10;99.90
42743;DHT22;28397;44.552;-0.848;2023-05-07T12:39:15;20.10;99.90
42743;DHT22;28397;44.552;-0.848;2023-05-07T12:41:57;20.10;99.90
42743;DHT22;28397;44.552;-0.848;2023-05-07T12:44:33;20.20;99.90
42743;DHT22;28397;44.552;-0.848;2023-05-07T12:47:02;20.30;99.90
42743;DHT22;28397;44.552;-0.848;2023-05-07T12:49:28;20.10;99.90
42743;DHT22;28397;44.552;-0.848;2023-05-07T12:51:54;20.10;99.90
42743;DHT22;28397;44.552;-0.848;2023-05-07T12:54:31;20.00;99.90
42743;DHT22;28397;44.552;-0.848;2023-05-07T12:57:01;19.90;99.90
42743;DHT22;28397;44.552;-0.848;2023-05-07T12:59:34;19.80;99.90
42743;DHT22;28397;44.552;-0.848;2023-05-07T13:02:01;20.10;99.90
42743;DHT22;28397;44.552;-0.848;2023-05-07T13:04:27;20.00;99.90
42743;DHT22;28397;44.552;-0.848;2023-05-07T13:06:52;19.90;99.90
42743;DHT22;28397;44.552;-0.848;2023-05-07T13:09:18;20.20;99.90
42743;DHT22;28397;44.552;-0.848;2023-05-07T13:11:43;20.60;99.90
42743;DHT22;28397;44.552;-0.848;2023-05-07T13:14:09;20.50;99.90
42743;DHT22;28397;44.552;-0.848;2023-05-07T13:16:35;20.60;99.90
42743;DHT22;28397;44.552;-0.848;2023-05-07T13:19:00;20.60;99.90
42743;DHT22;28397;44.552;-0.848;2023-05-07T13:21:26;20.60;99.90
42743;DHT22;28397;44.552;-0.848;2023-05-07T13:23:52;20.50;99.90
42743;DHT22;28397;44.552;-0.848;2023-05-07T13:26:18;20.60;99.90
42743;DHT22;28397;44.552;-0.848;2023-05-07T13:28:43;20.50;99.90
42743;DHT22;28397;44.552;-0.848;2023-05-07T13:31:09;20.60;99.90
42743;DHT22;28397;44.552;-0.848;2023-05-07T13:33:35;21.00;99.90
42743;DHT22;28397;44.552;-0.848;2023-05-07T13:36:01;20.90;99.90
42743;DHT22;28397;44.552;-0.848;2023-05-07T13:38:29;21.00;99.90
42743;DHT22;28397;44.552;-0.848;2023-05-07T13:40:55;21.30;99.90
42743;DHT22;28397;44.552;-0.848;2023-05-07T13:43:21;21.30;99.90
42743;DHT22;28397;44.552;-0.848;2023-05-07T13:45:46;21.60;99.90
42743;DHT22;28397;44.552;-0.848;2023-05-07T13:48:12;21.80;99.90
42743;DHT22;28397;44.552;-0.848;2023-05-07T13:50:38;22.10;99.90
42743;DHT22;28397;44.552;-0.848;2023-05-07T13:53:03;22.10;99.90
42743;DHT22;28397;44.552;-0.848;2023-05-07T13:55:29;21.90;99.90
42743;DHT22;28397;44.552;-0.848;2023-05-07T13:57:56;22.00;99.90
42743;DHT22;28397;44.552;-0.848;2023-05-07T14:00:23;22.20;99.90
42743;DHT22;28397;44.552;-0.848;2023-05-07T14:02:49;22.20;99.90
42743;DHT22;28397;44.552;-0.848;2023-05-07T14:05:15;22.10;99.90
42743;DHT22;28397;44.552;-0.848;2023-05-07T14:07:41;22.30;99.90
42743;DHT22;28397;44.552;-0.848;2023-05-07T14:10:06;22.40;99.90
42743;DHT22;28397;44.552;-0.848;2023-05-07T14:12:33;22.40;99.90
42743;DHT22;28397;44.552;-0.848;2023-05-07T14:14:59;22.60;99.90
42743;DHT22;28397;44.552;-0.848;2023-05-07T14:17:25;22.70;99.90
42743;DHT22;28397;44.552;-0.848;2023-05-07T14:19:52;22.60;99.90
42743;DHT22;28397;44.552;-0.848;2023-05-07T14:22:20;22.60;99.90
42743;DHT22;28397;44.552;-0.848;2023-05-07T14:24:47;22.80;99.90
42743;DHT22;28397;44.552;-0.848;2023-05-07T14:27:12;22.90;99.90
42743;DHT22;28397;44.552;-0.848;2023-05-07T14:29:38;22.90;99.90
42743;DHT22;28397;44.552;-0.848;2023-05-07T14:32:04;22.80;99.90
42743;DHT22;28397;44.552;-0.848;2023-05-07T14:34:30;22.90;99.90
42743;DHT22;28397;44.552;-0.848;2023-05-07T14:36:56;23.00;99.90
42743;DHT22;28397;44.552;-0.848;2023-05-07T14:39:22;23.10;99.90
42743;DHT22;28397;44.552;-0.848;2023-05-07T14:41:47;23.30;99.90
42743;DHT22;28397;44.552;-0.848;2023-05-07T14:44:13;23.30;99.90
42743;DHT22;28397;44.552;-0.848;2023-05-07T14:46:39;22.80;99.90
42743;DHT22;28397;44.552;-0.848;2023-05-07T14:49:04;23.10;99.90
42743;DHT22;28397;44.552;-0.848;2023-05-07T14:51:31;23.10;99.90
42743;DHT22;28397;44.552;-0.848;2023-05-07T14:53:56;22.70;99.90
42743;DHT22;28397;44.552;-0.848;2023-05-07T14:56:22;22.80;99.90
42743;DHT22;28397;44.552;-0.848;2023-05-07T14:58:48;22.90;99.90
42743;DHT22;28397;44.552;-0.848;2023-05-07T15:01:14;23.20;99.90
42743;DHT22;28397;44.552;-0.848;2023-05-07T15:03:40;23.30;99.90
42743;DHT22;28397;44.552;-0.848;2023-05-07T15:06:05;23.10;99.90
42743;DHT22;28397;44.552;-0.848;2023-05-07T15:08:31;23.30;99.90
42743;DHT22;28397;44.552;-0.848;2023-05-07T15:10:57;23.50;99.90
42743;DHT22;28397;44.552;-0.848;2023-05-07T15:13:22;23.90;99.90
42743;DHT22;28397;44.552;-0.848;2023-05-07T15:15:48;23.80;99.90
42743;DHT22;28397;44.552;-0.848;2023-05-07T15:18:15;23.30;99.90
42743;DHT22;28397;44.552;-0.848;2023-05-07T15:20:41;23.10;99.90
42743;DHT22;28397;44.552;-0.848;2023-05-07T15:23:08;23.30;99.90
42743;DHT22;28397;44.552;-0.848;2023-05-07T15:25:36;23.20;99.90
42743;DHT22;28397;44.552;-0.848;2023-05-07T15:28:02;23.40;99.90
42743;DHT22;28397;44.552;-0.848;2023-05-07T15:30:28;23.40;99.90